This is the latest recevied weather packets stored in our database for station/object K0WOI. If no packets are shown the sender has not sent any weather packets the latest 1 day(s).
| Time | Temp. | Humidity | Pressure | Rain* | Wind** | Luminosity | Snow |
|---|---|---|---|---|---|---|---|
| 1778000860 | 13.33° C | 39% | 1011.8 hPa | 0 mm | 0 m/s | 752 W/m² | - |
| 1778000558 | 13.33° C | 41% | 1011.8 hPa | 0 mm | 2.24 m/s, 291° | 361 W/m² | - |
| 1778000252 | 12.78° C | 39% | 1011.6 hPa | 0 mm | 1.79 m/s, 234° | 257 W/m² | - |
| 1777999949 | 13.33° C | 38% | 1011.8 hPa | 0 mm | 1.79 m/s, 335° | 275 W/m² | - |
| 1777999644 | 12.78° C | 39% | 1011.8 hPa | 0 mm | 0.89 m/s, 330° | 315 W/m² | - |
| 1777999342 | 12.78° C | 43% | 1011.7 hPa | 0 mm | 0.45 m/s, 332° | 235 W/m² | - |
| 1777999040 | 12.78° C | 41% | 1011.8 hPa | 0 mm | 0.89 m/s, 283° | 257 W/m² | - |
| 1777998738 | 12.78° C | 40% | 1011.9 hPa | 0 mm | 0.45 m/s, 332° | 220 W/m² | - |
| 1777998435 | 12.78° C | 41% | 1011.9 hPa | 0 mm | 1.34 m/s, 311° | 253 W/m² | - |
| 1777998132 | 12.78° C | 39% | 1011.5 hPa | 0 mm | 1.34 m/s, 299° | 255 W/m² | - |
| 1777997829 | 12.78° C | 41% | 1011.8 hPa | 0 mm | 0.89 m/s, 320° | 240 W/m² | - |
| 1777997527 | 12.78° C | 41% | 1011.7 hPa | 0 mm | 0.89 m/s, 276° | 239 W/m² | - |
| 1777997224 | 12.78° C | 43% | 1012 hPa | 0 mm | 1.79 m/s, 251° | 205 W/m² | - |
| 1777996922 | 12.22° C | 40% | 1011.6 hPa | 0 mm | 1.79 m/s, 339° | 240 W/m² | - |
| 1777996617 | 12.22° C | 44% | 1011.7 hPa | 0 mm | 1.79 m/s, 315° | 179 W/m² | - |
| 1777996314 | 11.67° C | 42% | 1011.4 hPa | 0 mm | 1.79 m/s, 239° | 319 W/m² | - |
| 1777996010 | 12.22° C | 44% | 1011.7 hPa | 0 mm | 1.79 m/s, 245° | 348 W/m² | - |
| 1777995706 | 12.78° C | 46% | 1011.7 hPa | 0 mm | 1.34 m/s, 284° | 283 W/m² | - |
| 1777995403 | 12.22° C | 42% | 1011.6 hPa | 0 mm | 0.45 m/s, 314° | 665 W/m² | - |
| 1777995100 | 12.22° C | 45% | 1011.7 hPa | 0 mm | 1.34 m/s, 280° | 660 W/m² | - |
| 1777994797 | 11.67° C | 43% | 1011.8 hPa | 0 mm | 0.89 m/s, 286° | 599 W/m² | - |
| 1777994493 | 11.67° C | 47% | 1011.8 hPa | 0 mm | 0.89 m/s, 303° | 463 W/m² | - |
| 1777994188 | 11.11° C | 48% | 1011.6 hPa | 0 mm | 1.34 m/s, 290° | 256 W/m² | - |
| 1777993886 | 11.11° C | 44% | 1011.7 hPa | 0 mm | 0.89 m/s, 311° | 219 W/m² | - |
| 1777993582 | 11.11° C | 44% | 1011.7 hPa | 0 mm | 0.45 m/s, 297° | 189 W/m² | - |
* Rain latest hour (hover to see other rain measurements)
** Current wind speed in m/s (hover to see current wind gust speed)